KZZV/ZZV METAR and TAF weather

Enter ICAO airport designator
Station Type Date Time Source
KZZV METAR 2021/03/09 09:53 UTC NOAA

KZZV 090953Z AUTO 00000KT 10SM OVC095 03/M02 A3038 RMK AO2 SLP288 T00281022


Station Type Date Time Source
KZZV Decoded METAR 2021/03/09 09:53 UTC NOAA

ZANESVILLE MUNICIPAL AIRPORT , OH, United States (KZZV) 39-57N 81-54W 268M
Mar 09, 2021 - 04:53 AM EST / 2021.03.09 0953 UTC
Wind: Calm:0
Visibility: 10 mile(s):0
Sky conditions: overcast
Temperature: 37.0 F (2.8 C)
Dew Point: 28.0 F (-2.2 C)
Relative Humidity: 69%
Pressure (altimeter): 30.38 in. Hg (1028 hPa)
ob: KZZV 090953Z AUTO 00000KT 10SM OVC095 03/M02 A3038 RMK AO2 SLP288 T00281022
cycle: 10

Station Type Date Time Source
KZZV TAF 2021/03/09 06:33 UTC NOAA

TAF KZZV 090529Z 0906/1006 20006KT P6SM BKN100
FM091300 22007KT P6SM SKC
FM100000 16003KT P6SM SKC

Example: see airport list